• Join FlightAware (Why Join?)
  • Login
  • US Flag 
12:14AM EDT


 

Airport Tracker/Info


-or-


 

Live Flight TrackerFlight Track Log ✈ AAL2345 ✈ 02-Jun-2013 ✈ KORD - KDFW

Flight Track Log - Related Links

Times and Time Zones

All times are in EDT time to prevent confusion due to time zone crossing. See the AAL2345 flight status page for this flight to view local times or setup timezone preferences in your user account.

Time Position Orientation Groundspeed Altitude Reporting Facility
EDT Latitude Longitude Course Direction KTS MPH feet Rate Location/Type
06:52PM 41.9167 -87.9500 207° Southwest 224 258 2,800  Level Chicago TRACON
06:53PM 41.8500 -88.0000 209° Southwest 267 307 5,000 1,380 Climbing Chicago TRACON
06:54PM 41.8269 -88.0050 189° South 256 295 5,000 1,680 Level Chicago Center
06:55PM 41.6698 -88.2749 197° South  Level Estimated
06:55PM 41.7381 -88.0267 190° South 274 315 7,700  Level Chicago Center
06:56PM 41.5732 -88.2238 158° South  Level FlightAware Approximate
06:56PM 41.6622 -88.0631 200° South 289 333 10,400  Level Chicago Center
06:57PM 41.4942 -88.3178 207° Southwest  Level Estimated
06:57PM 41.5836 -88.0986 199° South 301 346 12,900  Level Chicago Center
06:58PM 41.4986 -88.1383 199° South 328 377 14,500 1,920 Climbing Chicago Center
06:59PM 41.3892 -88.1883 199° South 360 414 16,900 2,040 Climbing Chicago Center
07:00PM 41.2922 -88.2322 199° South 374 430 18,800 1,680 Climbing Chicago Center
07:01PM 41.1933 -88.2753 198° South 378 435 20,400 1,260 Climbing Chicago Center
07:02PM 41.0869 -88.3225 198° South 393 452 21,500 1,440 Climbing Chicago Center
07:03PM 40.9514 -88.3836 199° South 423 487 23,400 1,500 Climbing Chicago Center
07:04PM 40.8358 -88.4364 199° South 436 502 24,700 1,320 Climbing Chicago Center
07:05PM 40.7167 -88.4897 199° South 451 519 26,200 1,320 Climbing Chicago Center
07:06PM 40.5972 -88.5419 198° South 455 524 27,500 1,380 Climbing Chicago Center
07:07PM 40.4806 -88.5944 199° South 448 516 29,100 1,200 Climbing Chicago Center
07:08PM 40.3753 -88.6892 214° Southwest 431 496 30,000 420 Climbing Chicago Center
07:09PM 40.2889 -88.7950 223° Southwest 424 488 30,000  Level Chicago Center
07:10PM 40.2006 -88.9011 223° Southwest 427 491 30,000  Level Chicago Center
07:11PM 40.0953 -89.0286 223° Southwest 427 491 30,000  Level Chicago Center
07:12PM 40.0064 -89.1331 222° Southwest 428 493 30,000  Level Chicago Center
07:13PM 39.9347 -89.2194 223° Southwest 429 494 30,000  Level Kansas City Center
07:14PM 39.8475 -89.3244 223° Southwest 428 493 30,000  Level Kansas City Center
07:15PM 39.7592 -89.4300 223° Southwest 429 494 30,000  Level Kansas City Center
07:16PM 39.6678 -89.5375 222° Southwest 428 493 30,000  Level Kansas City Center
07:17PM 39.5806 -89.6422 223° Southwest 428 493 30,000  Level Kansas City Center
07:18PM 39.4919 -89.7450 222° Southwest 431 496 30,000  Level Kansas City Center
07:19PM 39.3861 -89.8725 223° Southwest 433 498 30,000  Level Kansas City Center
07:20PM 39.2972 -89.9764 222° Southwest 433 498 30,000  Level Kansas City Center
07:21PM 39.2083 -90.0800 222° Southwest 433 498 30,000  Level Kansas City Center
07:22PM 39.1194 -90.1839 222° Southwest 433 498 30,000  Level Kansas City Center
07:23PM 39.0300 -90.2878 222° Southwest 434 499 30,000  Level Kansas City Center
07:24PM 38.9222 -90.4114 222° Southwest 435 501 30,000  Level Kansas City Center
07:25PM 38.8325 -90.5153 222° Southwest 434 499 30,000  Level Kansas City Center
07:26PM 38.7539 -90.6364 230° Southwest 438 504 30,000  Level Kansas City Center
07:27PM 38.6800 -90.7467 229° Southwest 434 499 30,000  Level Kansas City Center
07:28PM 38.6014 -90.8608 229° Southwest 432 497 30,000  Level Kansas City Center
07:29PM 38.5069 -90.9992 229° Southwest 433 498 30,000  Level Kansas City Center
07:30PM 38.4264 -91.1147 228° Southwest 436 502 30,000  Level Kansas City Center
07:32PM 38.3475 -91.2278 228° Southwest 432 497 30,000  Level Kansas City Center
07:33PM 38.2672 -91.3433 229° Southwest 436 502 30,000  Level Kansas City Center
07:34PM 38.1772 -91.4706 228° Southwest 435 501 30,000  Level Kansas City Center
07:35PM 38.0964 -91.5864 228° Southwest 435 501 30,000  Level Kansas City Center
07:36PM 38.0161 -91.7017 229° Southwest 434 499 30,000  Level Kansas City Center
07:37PM 37.9344 -91.8164 228° Southwest 434 499 30,000  Level Kansas City Center
07:38PM 37.8531 -91.9319 228° Southwest 435 501 30,000  Level Kansas City Center
07:39PM 37.7714 -92.0472 228° Southwest 434 499 30,000  Level Kansas City Center
07:40PM 37.6878 -92.1647 228° Southwest 435 501 30,000  Level Kansas City Center
07:41PM 37.6072 -92.2778 228° Southwest 436 502 30,000  Level Kansas City Center
07:42PM 37.5247 -92.3917 228° Southwest 434 499 30,000  Level Kansas City Center
07:43PM 37.4272 -92.5292 228° Southwest 435 501 30,000  Level Kansas City Center
07:44PM 37.3428 -92.6433 227° Southwest 440 506 30,000  Level Kansas City Center
07:45PM 37.2592 -92.7536 226° Southwest 437 503 30,000  Level Kansas City Center
07:46PM 37.1542 -92.8397 213° Southwest 442 509 30,000  Level Kansas City Center
07:47PM 37.0503 -92.9250 213° Southwest 443 510 30,000  Level Kansas City Center
07:48PM 36.9456 -93.0125 214° Southwest 447 514 30,000  Level Kansas City Center
07:49PM 36.8414 -93.0967 213° Southwest 446 513 30,000  Level Kansas City Center
07:50PM 36.7344 -93.1858 214° Southwest 451 519 30,000  Level Kansas City Center
07:51PM 36.6289 -93.2756 214° Southwest 457 526 30,000  Level Kansas City Center
07:52PM 36.5031 -93.3781 213° Southwest 456 525 30,000  Level Kansas City Center
07:53PM 36.3994 -93.4597 212° Southwest 452 520 30,000  Level Kansas City Center
07:54PM 36.3547 -93.4981 215° Southwest 451 519 30,000  Level Memphis Center
07:55PM 36.2503 -93.5842 214° Southwest 451 519 30,000  Level Memphis Center
07:56PM 36.1481 -93.6675 213° Southwest 451 519 30,000  Level Memphis Center
07:57PM 36.0436 -93.7533 214° Southwest 451 519 30,000  Level Memphis Center
07:58PM 35.9392 -93.8336 212° Southwest 446 513 30,000  Level Memphis Center
07:59PM 35.8325 -93.9186 213° Southwest 446 513 30,000  Level Memphis Center
08:00PM 35.7300 -94.0036 214° Southwest 446 513 30,000  Level Memphis Center
08:01PM 35.6256 -94.0833 212° Southwest 446 513 30,000 -420 Level Memphis Center
08:02PM 35.5228 -94.1656 213° Southwest 446 513 29,200 -900 Descending Memphis Center
08:03PM 35.4181 -94.2475 213° Southwest 446 513 28,300 -600 Descending Memphis Center
08:04PM 35.3192 -94.3444 219° Southwest 451 519 28,000 -180 Descending Memphis Center
08:05PM 35.2242 -94.4467 221° Southwest 451 519 28,000  Level Memphis Center
08:06PM 35.1331 -94.5489 223° Southwest 451 519 28,000  Level Memphis Center
08:08PM 34.9544 -94.7486 223° Southwest 438 504 28,000  Level Fort Worth Center
08:09PM 34.8628 -94.8450 221° Southwest 444 511 28,000  Level Fort Worth Center
08:10PM 34.7689 -94.9464 222° Southwest 454 522 28,000  Level Fort Worth Center
08:11PM 34.6789 -95.0400 221° Southwest 449 517 28,000  Level Fort Worth Center
08:12PM 34.5828 -95.1461 222° Southwest 449 517 28,000  Level Fort Worth Center
08:13PM 34.4906 -95.2442 221° Southwest 449 517 28,000 -300 Level Fort Worth Center
08:14PM 34.3942 -95.3422 220° Southwest 455 524 27,400 -1,020 Descending Fort Worth Center
08:15PM 34.2997 -95.4425 221° Southwest 455 524 26,000 -1,500 Descending Fort Worth Center
08:16PM 34.2094 -95.5400 222° Southwest 449 517 24,500 -1,020 Descending Fort Worth Center
08:17PM 34.1128 -95.6375 220° Southwest 449 517 24,000 -300 Descending Fort Worth Center
08:18PM 34.0142 -95.7422 221° Southwest 449 517 24,000  Level Fort Worth Center
08:19PM 33.9214 -95.8392 221° Southwest 449 517 24,000  Level Fort Worth Center
08:20PM 33.8286 -95.9383 222° Southwest 454 522 24,000 -600 Level Fort Worth Center
08:21PM 33.7358 -96.0322 220° Southwest 454 522 22,800 -1,800 Descending Fort Worth Center
08:22PM 33.6431 -96.1261 220° Southwest 454 522 20,400 -2,340 Descending Fort Worth Center
08:23PM 33.5542 -96.2194 221° Southwest 444 511 18,200 -2,040 Descending Fort Worth Center
08:24PM 33.4736 -96.3078 222° Southwest 428 493 16,400 -1,500 Descending Fort Worth Center
08:25PM 33.4014 -96.3983 226° Southwest 390 449 15,200 -1,500 Descending Fort Worth Center
08:26PM 33.3331 -96.4811 225° Southwest 370 426 13,500 -1,740 Descending Fort Worth Center
08:27PM 33.2667 -96.5614 225° Southwest 359 413 11,800 -1,260 Descending Fort Worth Center
08:28PM 33.2047 -96.6364 225° Southwest 338 389 11,000 -420 Descending Fort Worth Center
08:29PM 33.1467 -96.7064 225° Southwest 320 368 11,000  Level Fort Worth Center
08:29PM 33.1000 -96.7667 227° Southwest 299 344 11,000  Level Dallas / Fort Worth TRACON
08:31PM 33.0333 -96.8333 220° Southwest 293 337 11,000  Level Dallas / Fort Worth TRACON
08:32PM 32.9667 -96.9000 220° Southwest 248 285 11,000 -720 Level Dallas / Fort Worth TRACON
08:33PM 32.9000 -96.9000 180° South 274 315 9,600 -1,380 Descending Dallas / Fort Worth TRACON
08:33PM 32.8333 -96.9000 180° South 268 308 8,400 -1,440 Descending Dallas / Fort Worth TRACON
08:34PM 32.7667 -96.9167 192° South 264 304 7,000 -1,380 Descending Dallas / Fort Worth TRACON
08:35PM 32.7000 -96.9333 192° South 257 296 5,700 -1,620 Descending Dallas / Fort Worth TRACON
08:37PM 32.7167 -97.0000 287° West 214 246 3,700 -1,860 Descending Dallas / Fort Worth TRACON